createdAt,value
2023-05-22T00:01:25.826Z,6.14
2023-05-22T00:03:53.493Z,5.92
2023-05-22T00:06:20.692Z,5.85
2023-05-22T00:08:47.399Z,5.94
2023-05-22T00:11:14.314Z,5.44
2023-05-22T00:13:41.096Z,5.63
2023-05-22T00:16:07.909Z,5.49
2023-05-22T00:18:34.581Z,5.47
2023-05-22T00:21:01.220Z,5.26
2023-05-22T00:23:30.025Z,5.67
2023-05-22T00:25:56.815Z,5.42
2023-05-22T00:28:23.459Z,5.37
2023-05-22T00:30:50.109Z,5.42
2023-05-22T00:33:19.531Z,5.62
2023-05-22T00:35:46.213Z,5.09
2023-05-22T00:38:29.696Z,5.11
2023-05-22T00:40:56.778Z,5.02
2023-05-22T00:43:23.524Z,5.01
2023-05-22T00:45:50.346Z,4.70
2023-05-22T00:48:17.119Z,4.88
2023-05-22T00:50:44.200Z,4.79
2023-05-22T00:53:11.483Z,4.75
2023-05-22T00:55:38.740Z,4.88
2023-05-22T00:58:07.494Z,4.72
2023-05-22T01:00:38.639Z,5.06
2023-05-22T01:03:05.867Z,4.80
2023-05-22T01:05:32.591Z,4.74
2023-05-22T01:07:59.281Z,4.74
2023-05-22T01:10:28.087Z,4.78
2023-05-22T01:13:16.002Z,4.69
2023-05-22T01:16:03.920Z,4.76
2023-05-22T01:18:49.019Z,4.75
2023-05-22T01:21:15.695Z,4.39
2023-05-22T01:24:12.154Z,3.75
2023-05-22T01:26:56.036Z,3.85
2023-05-22T01:29:42.349Z,3.89
2023-05-22T01:32:17.083Z,3.64
2023-05-22T01:34:47.081Z,3.75
2023-05-22T01:37:14.938Z,3.73
2023-05-22T01:39:43.516Z,4.50
2023-05-22T01:42:10.296Z,4.72
2023-05-22T01:44:37.055Z,4.39
2023-05-22T01:47:03.831Z,4.76
2023-05-22T01:49:32.491Z,4.06
2023-05-22T01:52:08.346Z,4.07
2023-05-22T01:55:20.353Z,3.92
2023-05-22T01:57:59.440Z,3.72
2023-05-22T02:00:28.181Z,3.66
2023-05-22T02:03:05.677Z,3.80
2023-05-22T02:05:34.348Z,3.98
2023-05-22T02:08:03.798Z,4.16
2023-05-22T02:10:34.085Z,4.06
2023-05-22T02:13:00.913Z,4.11
2023-05-22T02:15:27.787Z,4.03
2023-05-22T02:17:54.508Z,4.10
2023-05-22T02:20:21.435Z,3.94
2023-05-22T02:22:48.182Z,4.10
2023-05-22T02:25:16.440Z,4.02
2023-05-22T02:27:45.150Z,3.97
2023-05-22T02:30:13.567Z,3.83
2023-05-22T02:32:41.324Z,3.84
2023-05-22T02:35:08.541Z,3.88
2023-05-22T02:37:35.407Z,3.97
2023-05-22T02:40:02.399Z,3.71
2023-05-22T02:42:29.067Z,3.78
2023-05-22T02:44:55.896Z,3.82
2023-05-22T02:47:22.593Z,3.77
2023-05-22T02:49:49.396Z,3.64
2023-05-22T02:52:17.914Z,3.60
2023-05-22T02:54:45.008Z,3.74
2023-05-22T02:57:11.812Z,3.96
2023-05-22T02:59:38.477Z,4.60
2023-05-22T03:02:05.994Z,4.57
2023-05-22T03:04:32.942Z,4.47
2023-05-22T03:06:59.948Z,4.54
2023-05-22T03:09:26.627Z,5.04
2023-05-22T03:11:53.353Z,5.31
2023-05-22T03:14:20.113Z,5.63
2023-05-22T03:16:46.858Z,5.81
2023-05-22T03:19:15.952Z,6.00
2023-05-22T03:21:43.499Z,5.88
2023-05-22T03:24:10.537Z,6.05
2023-05-22T03:26:37.261Z,6.14
2023-05-22T03:29:04.409Z,5.66
2023-05-22T03:31:33.052Z,5.81
2023-05-22T03:34:00.430Z,5.53
2023-05-22T03:36:27.415Z,5.94
2023-05-22T03:38:56.831Z,5.87
2023-05-22T03:41:23.557Z,6.03
2023-05-22T03:43:52.328Z,6.00
2023-05-22T03:46:19.587Z,6.06
2023-05-22T03:48:46.297Z,5.94
2023-05-22T03:51:12.964Z,5.98
2023-05-22T03:53:39.625Z,6.00
2023-05-22T03:56:06.665Z,6.34
2023-05-22T03:58:33.510Z,6.47
2023-05-22T04:01:00.162Z,6.98
2023-05-22T04:03:27.911Z,6.82
2023-05-22T04:05:54.765Z,6.86
2023-05-22T04:08:24.358Z,7.06
2023-05-22T04:10:51.065Z,7.05
2023-05-22T04:13:17.968Z,6.81
2023-05-22T04:15:44.694Z,7.05
2023-05-22T04:18:11.821Z,7.35
2023-05-22T04:20:38.821Z,7.52
2023-05-22T04:23:05.657Z,7.48
2023-05-22T04:25:32.571Z,7.97
2023-05-22T04:28:00.195Z,7.75
2023-05-22T04:30:26.857Z,7.76
2023-05-22T04:32:53.758Z,7.79
2023-05-22T04:35:20.449Z,7.62
2023-05-22T04:37:47.106Z,7.62
2023-05-22T04:40:14.140Z,7.69
2023-05-22T04:42:41.465Z,8.12
2023-05-22T04:45:09.272Z,8.08
2023-05-22T04:47:35.931Z,8.53
2023-05-22T04:50:02.686Z,8.61
2023-05-22T04:52:29.642Z,8.31
2023-05-22T04:54:57.035Z,8.55
2023-05-22T04:57:24.573Z,8.40
2023-05-22T04:59:51.683Z,8.64
2023-05-22T05:02:18.425Z,8.50
2023-05-22T05:04:45.109Z,7.94
2023-05-22T05:07:11.786Z,7.81
2023-05-22T05:09:38.590Z,7.81
2023-05-22T05:12:05.524Z,8.12
2023-05-22T05:14:32.210Z,7.81
2023-05-22T05:16:58.927Z,8.11
2023-05-22T05:19:25.767Z,7.70
2023-05-22T05:21:52.452Z,7.77
2023-05-22T05:24:19.197Z,8.27
2023-05-22T05:26:46.099Z,8.06
2023-05-22T05:29:13.254Z,8.35
2023-05-22T05:31:40.049Z,8.56
2023-05-22T05:34:07.013Z,8.57
2023-05-22T05:36:33.743Z,8.02
2023-05-22T05:39:00.391Z,8.18
2023-05-22T05:41:27.206Z,7.96
2023-05-22T05:43:54.036Z,8.53
2023-05-22T05:46:20.976Z,8.15
2023-05-22T05:48:47.750Z,8.63
2023-05-22T05:51:14.562Z,8.84
2023-05-22T05:53:41.479Z,8.45
2023-05-22T05:56:08.851Z,8.39
2023-05-22T05:58:35.531Z,8.16
2023-05-22T06:01:02.680Z,8.19
2023-05-22T06:03:29.464Z,7.73
2023-05-22T06:05:57.412Z,8.33
2023-05-22T06:08:24.536Z,8.07
2023-05-22T06:10:51.444Z,7.85
2023-05-22T06:13:18.089Z,8.03
2023-05-22T06:15:45.110Z,8.13
2023-05-22T06:18:12.016Z,7.87
2023-05-22T06:20:39.059Z,7.55
2023-05-22T06:23:05.906Z,7.62
2023-05-22T06:25:32.859Z,7.33
2023-05-22T06:27:59.495Z,7.45
2023-05-22T06:30:38.829Z,7.53
2023-05-22T06:33:08.268Z,7.44
2023-05-22T06:35:42.268Z,7.27
2023-05-22T06:38:09.569Z,7.42
2023-05-22T06:40:36.915Z,7.41
2023-05-22T06:43:03.620Z,7.09
2023-05-22T06:45:30.437Z,7.35
2023-05-22T06:47:57.183Z,7.47
2023-05-22T06:50:24.006Z,7.42
2023-05-22T06:52:50.762Z,7.11
2023-05-22T06:55:17.887Z,7.00
2023-05-22T06:57:44.930Z,6.99
2023-05-22T07:00:14.922Z,7.09
2023-05-22T07:02:41.797Z,7.03
2023-05-22T07:05:08.679Z,6.79
2023-05-22T07:07:35.317Z,6.85
2023-05-22T07:10:02.128Z,7.03
2023-05-22T07:12:29.413Z,7.36
2023-05-22T07:14:56.203Z,6.99
2023-05-22T07:17:22.987Z,7.30
2023-05-22T07:19:49.664Z,7.02
2023-05-22T07:22:16.929Z,7.08
2023-05-22T07:24:43.939Z,7.09
2023-05-22T07:27:10.722Z,7.02
2023-05-22T07:29:37.457Z,7.20
2023-05-22T07:32:04.383Z,7.15
2023-05-22T07:34:31.168Z,7.08
2023-05-22T07:36:58.080Z,7.02
2023-05-22T07:39:24.805Z,7.10
2023-05-22T07:41:51.821Z,7.19
2023-05-22T07:44:19.845Z,7.01
2023-05-22T07:46:46.804Z,7.53
2023-05-22T07:49:13.680Z,7.08
2023-05-22T07:51:40.517Z,7.01
2023-05-22T07:54:07.158Z,7.06
2023-05-22T07:56:33.846Z,6.77
2023-05-22T07:59:03.119Z,7.46
2023-05-22T08:01:29.850Z,6.78
2023-05-22T08:03:58.929Z,7.12
2023-05-22T08:06:25.669Z,6.98
2023-05-22T08:08:52.367Z,6.76
2023-05-22T08:11:19.156Z,7.17
2023-05-22T08:13:45.890Z,6.85
2023-05-22T08:16:12.951Z,7.17
2023-05-22T08:18:40.215Z,6.79
2023-05-22T08:21:06.975Z,7.22
2023-05-22T08:23:33.829Z,6.87
2023-05-22T08:26:00.715Z,6.69
2023-05-22T08:28:29.079Z,7.20
2023-05-22T08:30:55.840Z,7.20
2023-05-22T08:33:22.564Z,7.11
2023-05-22T08:35:49.400Z,7.27
2023-05-22T08:38:16.169Z,7.15
2023-05-22T08:40:48.587Z,6.88
2023-05-22T08:43:15.830Z,7.31
2023-05-22T08:45:42.713Z,6.95
2023-05-22T08:48:13.046Z,7.47
2023-05-22T08:50:42.887Z,7.51
2023-05-22T08:53:12.446Z,7.34
2023-05-22T08:55:39.955Z,7.23
2023-05-22T08:58:08.878Z,7.66
2023-05-22T09:00:35.997Z,7.60
2023-05-22T09:03:05.062Z,7.58
2023-05-22T09:05:31.878Z,7.48
2023-05-22T09:08:12.061Z,7.39
2023-05-22T09:10:43.935Z,7.24
2023-05-22T09:13:10.862Z,7.75
2023-05-22T09:15:38.263Z,7.65
2023-05-22T09:18:06.389Z,7.43
2023-05-22T09:20:39.002Z,7.61
2023-05-22T09:23:15.951Z,7.65
2023-05-22T09:25:43.558Z,7.58
2023-05-22T09:28:13.866Z,7.71
2023-05-22T09:30:43.557Z,7.94
2023-05-22T09:33:13.812Z,7.72
2023-05-22T09:35:40.676Z,7.18
2023-05-22T09:38:09.685Z,7.55
2023-05-22T09:40:42.177Z,8.00
2023-05-22T09:43:12.565Z,8.71
2023-05-22T09:45:39.629Z,8.64
2023-05-22T09:48:08.881Z,8.35
2023-05-22T09:50:38.538Z,8.55
2023-05-22T09:53:06.503Z,8.11
2023-05-22T09:55:34.205Z,8.51
2023-05-22T09:58:04.167Z,9.00
2023-05-22T10:00:34.557Z,9.11
2023-05-22T10:03:11.245Z,8.88
2023-05-22T10:05:45.658Z,9.45
2023-05-22T10:08:21.884Z,9.53
2023-05-22T10:10:51.925Z,9.07
2023-05-22T10:13:19.205Z,9.08
2023-05-22T10:15:47.932Z,9.39
2023-05-22T10:18:15.979Z,9.65
2023-05-22T10:20:44.053Z,9.66
2023-05-22T10:23:10.807Z,9.22
2023-05-22T10:25:38.301Z,9.62
2023-05-22T10:28:06.628Z,9.74
2023-05-22T10:30:58.507Z,9.56
2023-05-22T10:33:41.702Z,9.21
2023-05-22T10:36:16.499Z,9.53
2023-05-22T10:38:57.301Z,9.92
2023-05-22T10:41:25.963Z,9.27
2023-05-22T10:43:56.815Z,8.69
2023-05-22T10:46:26.309Z,8.63
2023-05-22T10:48:54.647Z,9.46
2023-05-22T10:51:23.167Z,9.62
2023-05-22T10:53:58.216Z,9.46
2023-05-22T10:56:33.366Z,9.61
2023-05-22T10:59:01.973Z,9.76
2023-05-22T11:01:28.746Z,9.68
2023-05-22T11:04:02.175Z,9.62
2023-05-22T11:06:39.012Z,9.64
2023-05-22T11:09:17.894Z,9.73
2023-05-22T11:11:45.956Z,9.79
2023-05-22T11:14:16.489Z,9.40
2023-05-22T11:16:43.656Z,9.03
2023-05-22T11:19:22.558Z,9.34
2023-05-22T11:21:50.830Z,9.62
2023-05-22T11:24:18.412Z,9.62
2023-05-22T11:27:07.368Z,9.80
2023-05-22T11:29:34.470Z,10.04
2023-05-22T11:32:02.830Z,9.83
2023-05-22T11:34:29.618Z,9.95
2023-05-22T11:37:00.057Z,9.81
2023-05-22T11:39:27.576Z,9.81
2023-05-22T11:41:54.627Z,9.95
2023-05-22T11:44:21.579Z,9.97
2023-05-22T11:46:48.568Z,10.08
2023-05-22T11:49:15.482Z,9.55
2023-05-22T11:51:42.278Z,9.25
2023-05-22T11:54:08.971Z,9.69
2023-05-22T11:56:35.741Z,9.76
2023-05-22T11:59:03.002Z,9.55
2023-05-22T12:01:29.958Z,9.71
2023-05-22T12:03:56.782Z,9.53
2023-05-22T12:06:23.711Z,9.12
2023-05-22T12:08:50.515Z,9.07
2023-05-22T12:11:17.890Z,9.45
2023-05-22T12:13:50.622Z,9.71
2023-05-22T12:16:23.096Z,9.83
2023-05-22T12:18:56.870Z,10.15
2023-05-22T12:21:27.408Z,10.50
2023-05-22T12:23:55.356Z,9.87
2023-05-22T12:26:24.335Z,10.14
2023-05-22T12:28:54.459Z,9.65
2023-05-22T12:31:23.034Z,9.51
2023-05-22T12:33:53.052Z,9.77
2023-05-22T12:36:19.777Z,9.05
2023-05-22T12:38:46.691Z,9.41
2023-05-22T12:41:13.392Z,9.19
2023-05-22T12:43:40.107Z,9.37
2023-05-22T12:46:06.896Z,9.16
2023-05-22T12:48:33.665Z,9.15
2023-05-22T12:51:01.196Z,9.25
2023-05-22T12:53:27.910Z,9.23
2023-05-22T12:55:54.731Z,9.29
2023-05-22T12:58:21.713Z,9.37
2023-05-22T13:00:48.411Z,8.85
2023-05-22T13:03:15.280Z,8.57
2023-05-22T13:05:51.762Z,8.76
2023-05-22T13:08:20.932Z,8.85
2023-05-22T13:10:47.663Z,8.42
2023-05-22T13:13:14.591Z,8.08
2023-05-22T13:15:42.697Z,7.31
2023-05-22T13:18:09.576Z,7.40
2023-05-22T13:20:36.285Z,8.29
2023-05-22T13:23:02.990Z,7.81
2023-05-22T13:25:30.129Z,7.07
2023-05-22T13:27:58.614Z,5.96
2023-05-22T13:30:25.500Z,5.59
2023-05-22T13:32:52.367Z,5.30
2023-05-22T13:35:19.349Z,5.22
2023-05-22T13:37:46.433Z,4.98
2023-05-22T13:40:13.180Z,5.08
2023-05-22T13:42:39.989Z,5.28
2023-05-22T13:45:07.664Z,5.37
2023-05-22T13:47:34.365Z,7.64
2023-05-22T13:50:01.053Z,8.63
2023-05-22T13:52:28.000Z,8.57
2023-05-22T13:54:54.902Z,8.39
2023-05-22T13:57:21.592Z,8.30
2023-05-22T13:59:48.470Z,6.18
2023-05-22T14:02:15.374Z,6.22
2023-05-22T14:04:42.096Z,5.17
2023-05-22T14:07:11.758Z,5.45
2023-05-22T14:09:38.452Z,6.26
2023-05-22T14:12:05.525Z,6.03
2023-05-22T14:14:32.442Z,6.86
2023-05-22T14:16:59.176Z,6.77
2023-05-22T14:19:25.907Z,6.83
2023-05-22T14:21:52.757Z,7.36
2023-05-22T14:24:19.465Z,7.73
2023-05-22T14:26:47.398Z,8.27
2023-05-22T14:29:14.327Z,8.51
2023-05-22T14:31:51.496Z,7.59
2023-05-22T14:34:18.788Z,7.81
2023-05-22T14:36:46.610Z,7.39
2023-05-22T14:39:13.256Z,6.95
2023-05-22T14:41:39.905Z,6.97
2023-05-22T14:44:06.654Z,6.60
2023-05-22T14:46:33.473Z,6.67
2023-05-22T14:49:00.206Z,6.38
2023-05-22T14:51:26.915Z,6.03
2023-05-22T14:53:53.652Z,5.53
2023-05-22T14:56:20.365Z,5.53
2023-05-22T14:58:47.092Z,5.87
2023-05-22T15:01:13.995Z,5.64
2023-05-22T15:03:40.683Z,5.13
2023-05-22T15:06:07.458Z,5.31
2023-05-22T15:08:37.041Z,4.86
2023-05-22T15:11:03.989Z,5.01
2023-05-22T15:13:30.640Z,5.14
2023-05-22T15:15:57.330Z,5.21
2023-05-22T15:18:24.123Z,4.76
2023-05-22T15:20:51.017Z,4.89
2023-05-22T15:23:17.692Z,4.78
2023-05-22T15:25:44.351Z,4.76
2023-05-22T15:28:14.689Z,4.74
2023-05-22T15:30:41.395Z,4.72
2023-05-22T15:33:08.278Z,4.67
2023-05-22T15:35:34.966Z,4.90
2023-05-22T15:38:04.191Z,5.09
2023-05-22T15:40:31.016Z,5.32
2023-05-22T15:42:57.689Z,5.42
2023-05-22T15:45:24.396Z,5.27
2023-05-22T15:47:51.116Z,5.37
2023-05-22T15:50:20.308Z,5.16
2023-05-22T15:52:46.985Z,5.05
2023-05-22T15:55:13.721Z,4.88
2023-05-22T15:57:40.463Z,4.57
2023-05-22T16:00:07.857Z,4.86
2023-05-22T16:02:34.766Z,4.76
2023-05-22T16:05:01.496Z,4.78
2023-05-22T16:07:28.237Z,4.85
2023-05-22T16:09:54.920Z,4.76
2023-05-22T16:12:21.762Z,4.99
2023-05-22T16:14:49.474Z,5.16
2023-05-22T16:17:18.974Z,5.29
2023-05-22T16:19:47.003Z,5.98
2023-05-22T16:22:19.443Z,6.29
2023-05-22T16:24:46.238Z,6.14
2023-05-22T16:27:12.936Z,6.19
2023-05-22T16:29:39.693Z,6.44
2023-05-22T16:32:06.469Z,7.12
2023-05-22T16:34:33.321Z,7.63
2023-05-22T16:37:00.294Z,7.74
2023-05-22T16:39:27.261Z,7.87
2023-05-22T16:41:54.141Z,8.41
2023-05-22T16:44:20.826Z,8.46
2023-05-22T16:46:47.618Z,9.15
2023-05-22T16:49:14.452Z,8.56
2023-05-22T16:51:41.242Z,8.34
2023-05-22T16:54:07.957Z,8.72
2023-05-22T16:56:34.648Z,8.78
2023-05-22T16:59:01.479Z,7.84
2023-05-22T17:01:28.361Z,8.61
2023-05-22T17:03:55.193Z,7.10
2023-05-22T17:06:21.915Z,6.43
2023-05-22T17:08:48.654Z,6.59
2023-05-22T17:11:16.594Z,7.39
2023-05-22T17:13:43.266Z,7.31
2023-05-22T17:16:10.063Z,7.78
2023-05-22T17:18:36.791Z,8.38
2023-05-22T17:21:03.572Z,8.75
2023-05-22T17:23:30.316Z,9.10
2023-05-22T17:25:57.331Z,8.95
2023-05-22T17:28:24.153Z,9.29
2023-05-22T17:30:51.962Z,8.99
2023-05-22T17:33:18.840Z,8.98
2023-05-22T17:35:45.654Z,9.21
2023-05-22T17:38:12.502Z,9.70
2023-05-22T17:40:45.516Z,9.62
2023-05-22T17:43:13.032Z,10.18
2023-05-22T17:45:39.796Z,10.02
2023-05-22T17:48:11.272Z,9.96
2023-05-22T17:50:39.396Z,9.85
2023-05-22T17:53:07.664Z,10.03
2023-05-22T17:55:34.446Z,10.40
2023-05-22T17:58:01.502Z,9.89
2023-05-22T18:00:28.283Z,10.02
2023-05-22T18:02:55.043Z,10.06
2023-05-22T18:05:21.942Z,9.86
2023-05-22T18:07:48.783Z,9.74
2023-05-22T18:10:20.593Z,9.88
2023-05-22T18:12:47.368Z,9.99
2023-05-22T18:15:14.206Z,10.36
2023-05-22T18:17:43.264Z,9.80
2023-05-22T18:20:11.044Z,9.66
2023-05-22T18:22:39.440Z,9.44
2023-05-22T18:25:09.823Z,7.94
2023-05-22T18:27:36.898Z,7.73
2023-05-22T18:30:05.269Z,7.83
2023-05-22T18:32:32.489Z,7.72
2023-05-22T18:34:59.961Z,7.15
2023-05-22T18:37:30.880Z,7.23
2023-05-22T18:39:57.827Z,7.25
2023-05-22T18:42:24.761Z,7.78
2023-05-22T18:44:51.539Z,7.52
2023-05-22T18:47:18.526Z,7.91
2023-05-22T18:49:47.446Z,8.21
2023-05-22T18:52:16.189Z,8.14
2023-05-22T18:54:58.008Z,8.38
2023-05-22T18:57:28.160Z,8.66
2023-05-22T18:59:54.798Z,8.63
2023-05-22T19:02:21.526Z,9.29
2023-05-22T19:04:50.695Z,9.05
2023-05-22T19:07:20.018Z,9.14
2023-05-22T19:09:46.762Z,9.20
2023-05-22T19:12:16.806Z,9.10
2023-05-22T19:14:44.852Z,9.13
2023-05-22T19:17:12.406Z,9.35
2023-05-22T19:19:39.292Z,9.14
2023-05-22T19:22:06.045Z,9.22
2023-05-22T19:24:34.829Z,9.54
2023-05-22T19:27:01.631Z,9.38
2023-05-22T19:29:28.326Z,9.65
2023-05-22T19:31:58.140Z,9.97
2023-05-22T19:34:24.844Z,10.26
2023-05-22T19:36:51.624Z,11.02
2023-05-22T19:39:18.394Z,10.25
2023-05-22T19:41:45.082Z,10.69
2023-05-22T19:44:11.767Z,10.70
2023-05-22T19:46:38.549Z,10.64
2023-05-22T19:49:05.295Z,10.67
2023-05-22T19:51:31.976Z,11.00
2023-05-22T19:53:59.448Z,11.65
2023-05-22T19:56:26.546Z,11.67
2023-05-22T19:58:53.256Z,11.41
2023-05-22T20:01:19.936Z,11.95
2023-05-22T20:03:46.849Z,11.44
2023-05-22T20:06:13.789Z,11.35
2023-05-22T20:08:40.520Z,11.63
2023-05-22T20:11:07.727Z,11.07
2023-05-22T20:13:34.489Z,11.41
2023-05-22T20:16:01.261Z,11.16
2023-05-22T20:18:27.977Z,11.37
2023-05-22T20:20:54.721Z,11.34
2023-05-22T20:23:21.480Z,11.20
2023-05-22T20:25:48.175Z,10.76
2023-05-22T20:28:14.909Z,10.21
2023-05-22T20:30:41.594Z,10.34
2023-05-22T20:33:08.314Z,10.32
2023-05-22T20:35:35.230Z,10.38
2023-05-22T20:38:01.999Z,9.95
2023-05-22T20:40:29.986Z,9.65
2023-05-22T20:42:56.680Z,10.02
2023-05-22T20:45:23.397Z,9.67
2023-05-22T20:47:50.195Z,9.84
2023-05-22T20:50:16.880Z,9.68
2023-05-22T20:52:43.650Z,9.80
2023-05-22T20:55:11.301Z,9.75
2023-05-22T20:57:38.148Z,9.44
2023-05-22T21:00:08.082Z,9.24
2023-05-22T21:02:34.990Z,10.01
2023-05-22T21:05:01.698Z,9.72
2023-05-22T21:07:28.376Z,9.86
2023-05-22T21:09:55.143Z,10.40
2023-05-22T21:12:21.868Z,10.42
2023-05-22T21:14:48.775Z,10.56
2023-05-22T21:17:15.632Z,10.57
2023-05-22T21:19:42.408Z,10.84
2023-05-22T21:22:09.203Z,10.56
2023-05-22T21:24:35.953Z,10.51
2023-05-22T21:27:02.635Z,10.55
2023-05-22T21:29:29.327Z,10.39
2023-05-22T21:31:56.186Z,10.43
2023-05-22T21:34:22.919Z,10.71
2023-05-22T21:36:50.092Z,10.64
2023-05-22T21:39:16.818Z,10.99
2023-05-22T21:41:43.482Z,11.03
2023-05-22T21:44:10.181Z,10.70
2023-05-22T21:46:37.096Z,11.34
2023-05-22T21:49:03.798Z,11.16
2023-05-22T21:51:30.482Z,11.50
2023-05-22T21:53:57.216Z,11.39
2023-05-22T21:56:23.961Z,11.51
2023-05-22T21:58:50.730Z,11.08
2023-05-22T22:01:17.417Z,11.16
2023-05-22T22:03:44.189Z,10.90
2023-05-22T22:06:11.039Z,11.09
2023-05-22T22:08:37.688Z,11.39
2023-05-22T22:11:04.408Z,11.16
2023-05-22T22:13:31.075Z,11.66
2023-05-22T22:15:57.863Z,11.85
2023-05-22T22:18:24.588Z,11.87
2023-05-22T22:20:51.503Z,11.70
2023-05-22T22:23:18.346Z,12.44
2023-05-22T22:25:45.074Z,11.63
2023-05-22T22:28:12.727Z,12.15
2023-05-22T22:30:39.744Z,11.72
2023-05-22T22:33:06.671Z,12.01
2023-05-22T22:35:33.477Z,11.74
2023-05-22T22:38:00.479Z,12.17
2023-05-22T22:40:27.240Z,12.13
2023-05-22T22:42:53.955Z,12.48
2023-05-22T22:45:20.763Z,12.72
2023-05-22T22:47:47.490Z,12.98
2023-05-22T22:50:14.204Z,13.50
2023-05-22T22:52:46.194Z,13.26
2023-05-22T22:55:12.989Z,12.75
2023-05-22T22:57:40.074Z,12.44
2023-05-22T23:00:07.238Z,11.89
2023-05-22T23:02:34.185Z,12.05
2023-05-22T23:05:01.792Z,12.49
2023-05-22T23:07:28.550Z,12.88
2023-05-22T23:09:55.377Z,13.03
2023-05-22T23:12:22.037Z,12.91
2023-05-22T23:14:48.922Z,12.87
2023-05-22T23:17:15.799Z,12.49
2023-05-22T23:19:42.476Z,13.38
2023-05-22T23:22:09.232Z,12.66
2023-05-22T23:24:36.113Z,12.58
2023-05-22T23:27:02.797Z,12.34
2023-05-22T23:29:29.494Z,12.57
2023-05-22T23:31:56.249Z,12.83
2023-05-22T23:34:22.945Z,12.88
2023-05-22T23:36:49.623Z,12.90
2023-05-22T23:39:16.271Z,12.84
2023-05-22T23:41:42.957Z,12.84
2023-05-22T23:44:09.686Z,12.35
2023-05-22T23:46:36.406Z,12.22
2023-05-22T23:49:03.082Z,12.31
2023-05-22T23:51:30.205Z,11.46
2023-05-22T23:53:56.903Z,12.45
2023-05-22T23:56:23.571Z,12.52
2023-05-22T23:58:50.299Z,12.72
